Time;durP1;ratioP1;P1;durP2;ratioP2;P2;SDS_P1;SDS_P2;PMS_P1;PMS_P2;Temp;Humidity;BMP_temperature;BMP_pressure;BME280_temperature;BME280_humidity;BME280_pressure;Samples;Min_cycle;Max_cycle;Signal;HPM_P1;HPM_P2
2023/07/09 00:01:18;;;;;;;8.73;6.68;;;25.60;74.50;;;;;;5019664;28;20594;-66
2023/07/09 00:03:44;;;;;;;9.73;6.75;;;;;;;;;;5023490;28;20557;-66
2023/07/09 00:06:12;;;;;;;8.68;5.53;;;;;;;;;;5021401;28;20693;-66
2023/07/09 00:08:39;;;;;;;8.82;6.55;;;;;;;;;;5024004;28;20472;-66
2023/07/09 00:11:05;;;;;;;10.90;6.32;;;25.60;74.60;;;;;;5022400;28;20042;-66
2023/07/09 00:13:31;;;;;;;7.47;6.65;;;;;;;;;;5021747;28;20183;-66
2023/07/09 00:16:00;;;;;;;7.93;6.85;;;;;;;;;;5025834;28;20095;-66
2023/07/09 00:18:26;;;;;;;10.35;6.93;;;;;;;;;;5025362;28;20081;-66
2023/07/09 00:20:52;;;;;;;9.32;6.13;;;;;;;;;;5025830;28;20041;-66
2023/07/09 00:23:19;;;;;;;9.15;6.60;;;;;;;;;;5028392;28;20499;-66
2023/07/09 00:25:45;;;;;;;9.30;6.55;;;25.40;74.80;;;;;;5026264;28;20037;-66
2023/07/09 00:28:16;;;;;;;9.27;6.53;;;25.30;74.80;;;;;;5038702;28;20555;-66
2023/07/09 00:30:41;;;;;;;10.52;5.95;;;25.20;75.00;;;;;;5023693;28;20045;-66
2023/07/09 00:33:15;;;;;;;10.40;6.55;;;25.20;75.00;;;;;;5025329;28;20119;-66
2023/07/09 00:35:50;;;;;;;8.43;6.13;;;25.10;75.10;;;;;;5024476;28;20071;-66
2023/07/09 00:38:21;;;;;;;7.80;5.95;;;25.10;75.10;;;;;;5026506;28;20439;-66
2023/07/09 00:40:48;;;;;;;10.07;7.18;;;;;;;;;;5022518;28;20041;-66
2023/07/09 00:43:16;;;;;;;7.40;6.38;;;;;;;;;;5023897;28;20064;-66
2023/07/09 00:45:42;;;;;;;9.43;6.25;;;;;;;;;;5028219;28;20061;-66
2023/07/09 00:48:12;;;;;;;11.48;5.82;;;;;;;;;;5030005;28;20049;-66
2023/07/09 00:50:41;;;;;;;9.23;6.78;;;;;;;;;;5022502;28;20041;-66
2023/07/09 00:53:17;;;;;;;9.05;6.40;;;;;;;;;;5027729;28;20426;-66
2023/07/09 00:55:45;;;;;;;10.52;7.20;;;;;;;;;;5025998;28;20121;-66
2023/07/09 00:58:15;;;;;;;8.13;5.50;;;;;;;;;;5027920;28;20045;-67
2023/07/09 01:00:52;;;;;;;7.55;6.43;;;;;;;;;;5027649;28;20082;-66
2023/07/09 01:03:40;;;;;;;8.68;6.43;;;;;;;;;;5019041;28;20046;-66
2023/07/09 01:06:07;;;;;;;10.32;6.97;;;;;;;;;;5025533;28;20106;-66
2023/07/09 01:08:35;;;;;;;7.68;6.40;;;;;;;;;;5025654;28;20049;-66
2023/07/09 01:11:01;;;;;;;12.05;6.93;;;;;;;;;;5024767;28;20103;-66
2023/07/09 01:13:28;;;;;;;7.40;6.63;;;;;;;;;;5018655;28;20053;-66
2023/07/09 01:15:55;;;;;;;10.30;7.43;;;;;;;;;;5027417;28;20034;-66
2023/07/09 01:18:24;;;;;;;9.68;7.15;;;;;;;;;;5024163;28;20084;-66
2023/07/09 01:20:52;;;;;;;6.80;5.80;;;;;;;;;;5028647;28;20041;-66
2023/07/09 01:23:18;;;;;;;9.20;6.47;;;;;;;;;;5022558;28;20671;-66
2023/07/09 01:25:46;;;;;;;8.45;7.13;;;;;;;;;;5023504;28;20088;-66
2023/07/09 01:28:12;;;;;;;9.18;6.90;;;;;;;;;;5021570;28;20037;-66
2023/07/09 01:30:40;;;;;;;9.35;6.63;;;;;;;;;;5024331;28;20075;-66
2023/07/09 01:33:09;;;;;;;8.73;7.15;;;;;;;;;;5023760;28;20058;-66
2023/07/09 01:35:36;;;;;;;9.20;6.63;;;;;;;;;;5022774;28;20044;-66
2023/07/09 01:38:06;;;;;;;9.75;6.43;;;;;;;;;;5018535;28;20049;-66
2023/07/09 01:40:33;;;;;;;10.05;7.15;;;;;;;;;;5025079;28;20156;-66
2023/07/09 01:43:00;;;;;;;10.10;6.95;;;;;;;;;;5023265;28;20066;-66
2023/07/09 01:45:26;;;;;;;7.70;6.53;;;;;;;;;;5043898;28;20441;-66
2023/07/09 01:47:53;;;;;;;9.30;6.78;;;;;;;;;;5027953;28;20144;-66
2023/07/09 01:50:20;;;;;;;8.50;6.80;;;;;;;;;;5026749;28;20475;-66
2023/07/09 01:52:46;;;;;;;8.07;6.38;;;;;;;;;;5026417;28;20029;-66
2023/07/09 01:55:15;;;;;;;7.53;5.88;;;;;;;;;;5027184;28;20042;-66
2023/07/09 01:57:41;;;;;;;8.32;5.88;;;;;;;;;;5022640;28;20034;-66
2023/07/09 02:00:13;;;;;;;7.88;6.80;;;;;;;;;;5024173;28;20044;-66
2023/07/09 02:02:42;;;;;;;7.05;5.95;;;;;;;;;;5018961;28;20049;-66
2023/07/09 02:05:09;;;;;;;10.82;5.93;;;;;;;;;;5018055;28;20084;-66
2023/07/09 02:07:35;;;;;;;9.13;6.60;;;;;;;;;;5016302;28;20153;-66
2023/07/09 02:10:02;;;;;;;9.35;6.68;;;;;;;;;;5021519;28;20520;-66
2023/07/09 02:12:28;;;;;;;8.80;6.95;;;;;;;;;;5015149;28;20542;-66
2023/07/09 02:14:54;;;;;;;8.30;6.05;;;;;;;;;;5022421;28;20034;-66
2023/07/09 02:17:20;;;;;;;10.98;6.95;;;;;;;;;;5019929;28;20095;-66
2023/07/09 02:19:46;;;;;;;19.98;8.10;;;;;;;;;;5023745;28;20857;-66
2023/07/09 02:22:13;;;;;;;9.32;7.10;;;;;;;;;;5020275;28;20045;-66
2023/07/09 02:24:39;;;;;;;8.50;6.88;;;;;;;;;;5027242;28;20132;-65
2023/07/09 02:27:06;;;;;;;7.85;6.43;;;;;;;;;;5023917;28;20139;-66
2023/07/09 02:29:33;;;;;;;8.90;6.65;;;;;;;;;;5023383;28;20041;-66
2023/07/09 02:32:00;;;;;;;9.55;7.82;;;;;;;;;;5020164;28;20048;-66
2023/07/09 02:34:27;;;;;;;7.72;6.55;;;;;;;;;;5041838;28;20059;-66
2023/07/09 02:36:53;;;;;;;8.43;6.78;;;;;;;;;;5018041;28;20042;-66
2023/07/09 02:39:20;;;;;;;9.60;6.40;;;;;;;;;;5022476;28;20045;-66
2023/07/09 02:41:46;;;;;;;10.88;6.50;;;;;;;;;;5025973;28;20506;-66
2023/07/09 02:44:13;;;;;;;8.27;7.38;;;;;;;;;;5027246;28;20168;-66
2023/07/09 02:46:39;;;;;;;8.90;6.50;;;;;;;;;;5030734;28;20553;-66
2023/07/09 02:49:06;;;;;;;11.02;7.35;;;;;;;;;;5030735;28;20044;-66
2023/07/09 02:51:32;;;;;;;8.70;6.05;;;;;;;;;;5029379;28;20037;-66
2023/07/09 02:54:00;;;;;;;7.90;6.65;;;;;;;;;;5026707;28;20190;-66
2023/07/09 02:56:26;;;;;;;8.10;6.50;;;;;;;;;;5044970;28;20053;-66
2023/07/09 02:58:53;;;;;;;8.35;6.05;;;;;;;;;;5020500;28;20553;-66
2023/07/09 03:01:24;;;;;;;7.57;6.38;;;;;;;;;;5021481;28;20034;-66
2023/07/09 03:03:54;;;;;;;9.25;7.03;;;;;;;;;;5021535;28;20112;-66
2023/07/09 03:06:21;;;;;;;9.70;7.15;;;;;;;;;;5024699;28;20064;-66
2023/07/09 03:08:47;;;;;;;9.40;6.90;;;;;;;;;;5019573;28;20049;-66
2023/07/09 03:11:15;;;;;;;10.15;6.82;;;25.00;75.20;;;;;;5021485;28;20038;-66
2023/07/09 03:13:41;;;;;;;8.70;7.05;;;23.50;77.80;;;;;;5018046;28;20081;-66
2023/07/09 03:16:07;;;;;;;11.40;6.88;;;23.30;77.70;;;;;;5021133;28;20049;-66
2023/07/09 03:18:33;;;;;;;8.02;5.82;;;23.30;77.70;;;;;;5025130;28;20053;-64
2023/07/09 03:20:59;;;;;;;8.80;6.68;;;23.30;77.80;;;;;;5018855;28;20076;-64
2023/07/09 03:23:25;;;;;;;9.77;6.50;;;23.30;77.80;;;;;;5028806;28;20041;-64
2023/07/09 03:25:51;;;;;;;11.80;7.53;;;23.20;77.90;;;;;;5025952;28;20034;-64
2023/07/09 03:28:17;;;;;;;10.30;7.03;;;;;;;;;;5029452;28;20052;-63
2023/07/09 03:30:44;;;;;;;7.95;6.65;;;;;;;;;;5020545;28;20080;-64
2023/07/09 03:33:11;;;;;;;10.20;7.22;;;;;;;;;;5029133;28;20128;-64
2023/07/09 03:35:38;;;;;;;8.00;6.55;;;;;;;;;;5026718;28;20888;-64
2023/07/09 03:38:04;;;;;;;10.93;7.55;;;;;;;;;;5040773;28;20056;-64
2023/07/09 03:40:30;;;;;;;8.18;6.97;;;;;;;;;;5028337;28;20125;-63
2023/07/09 03:42:57;;;;;;;8.82;6.90;;;;;;;;;;5024948;28;20048;-64
2023/07/09 03:45:23;;;;;;;11.32;6.60;;;;;;;;;;5026229;28;20112;-63
2023/07/09 03:47:49;;;;;;;13.70;8.50;;;;;;;;;;5024561;28;20061;-64
2023/07/09 03:50:15;;;;;;;7.70;6.40;;;;;;;;;;5029660;28;20047;-63
2023/07/09 03:52:42;;;;;;;9.93;7.25;;;;;;;;;;5025619;28;20029;-64
2023/07/09 03:55:08;;;;;;;8.45;6.88;;;;;;;;;;5024767;28;20244;-64
2023/07/09 03:57:35;;;;;;;10.32;7.93;;;;;;;;;;5017192;28;20437;-64
2023/07/09 04:00:02;;;;;;;12.18;8.50;;;;;;;;;;5018749;28;20083;-64
2023/07/09 04:02:28;;;;;;;8.40;6.53;;;;;;;;;;5025493;28;20045;-64
2023/07/09 04:04:54;;;;;;;10.38;6.82;;;;;;;;;;5029460;28;20048;-64
2023/07/09 04:07:20;;;;;;;9.88;6.82;;;;;;;;;;5024547;28;20041;-64
2023/07/09 04:09:47;;;;;;;8.93;6.57;;;;;;;;;;5021756;28;20051;-63
2023/07/09 04:12:13;;;;;;;8.45;6.75;;;;;;;;;;5024208;28;20077;-63
2023/07/09 04:14:40;;;;;;;8.75;6.57;;;;;;;;;;5028818;28;20048;-64
2023/07/09 04:17:06;;;;;;;9.13;6.68;;;;;;;;;;5027115;28;20049;-64
2023/07/09 04:19:32;;;;;;;10.52;7.15;;;;;;;;;;5024795;28;20423;-64
2023/07/09 04:21:59;;;;;;;10.55;6.70;;;;;;;;;;5026215;28;20508;-64
2023/07/09 04:24:27;;;;;;;11.00;6.75;;;;;;;;;;5026304;28;20048;-64
2023/07/09 04:26:56;;;;;;;9.95;7.18;;;;;;;;;;5025880;28;20042;-63
2023/07/09 04:29:23;;;;;;;8.05;6.82;;;;;;;;;;5021714;28;20085;-64
2023/07/09 04:31:49;;;;;;;7.75;6.60;;;;;;;;;;5026313;28;20045;-64
2023/07/09 04:34:15;;;;;;;8.30;6.70;;;;;;;;;;5027471;28;20040;-64
2023/07/09 04:36:41;;;;;;;10.70;6.82;;;;;;;;;;5014427;28;20464;-64
2023/07/09 04:39:07;;;;;;;9.02;6.97;;;;;;;;;;5024292;28;20092;-64
2023/07/09 04:41:33;;;;;;;12.98;7.60;;;;;;;;;;5026995;28;20542;-64
2023/07/09 04:44:00;;;;;;;9.20;6.63;;;;;;;;;;5022976;28;20063;-64
2023/07/09 04:46:26;;;;;;;8.25;6.57;;;;;;;;;;5024517;28;20587;-63
2023/07/09 04:48:52;;;;;;;9.85;6.65;;;;;;;;;;5039441;28;20181;-64
2023/07/09 04:51:18;;;;;;;8.68;7.13;;;;;;;;;;5044494;28;20065;-64
2023/07/09 04:53:44;;;;;;;9.55;7.30;;;;;;;;;;5023379;28;20065;-64
2023/07/09 04:56:11;;;;;;;8.40;6.93;;;;;;;;;;5024086;28;20041;-64
2023/07/09 04:58:37;;;;;;;9.13;6.85;;;;;;;;;;5022029;28;20121;-64
2023/07/09 05:01:03;;;;;;;9.00;7.43;;;;;;;;;;5019183;28;20065;-64
2023/07/09 05:03:29;;;;;;;8.68;7.72;;;;;;;;;;5018199;28;20049;-64
2023/07/09 05:05:55;;;;;;;8.52;6.82;;;;;;;;;;5020637;28;20387;-64
2023/07/09 05:08:22;;;;;;;8.30;7.00;;;;;;;;;;5017226;28;20058;-64
2023/07/09 05:10:50;;;;;;;10.05;6.78;;;;;;;;;;5021064;28;20052;-64
2023/07/09 05:13:17;;;;;;;9.38;7.22;;;;;;;;;;5017758;28;20125;-64
2023/07/09 05:15:47;;;;;;;10.57;7.57;;;;;;;;;;5020284;28;20057;-64
2023/07/09 05:18:14;;;;;;;8.48;6.95;;;;;;;;;;5019331;28;20046;-63
2023/07/09 05:20:41;;;;;;;9.82;6.90;;;;;;;;;;5021555;28;20081;-63
2023/07/09 05:23:08;;;;;;;9.05;7.43;;;;;;;;;;5025523;28;20060;-63
2023/07/09 05:25:34;;;;;;;10.95;7.22;;;;;;;;;;5026352;28;20041;-63
2023/07/09 05:28:01;;;;;;;10.25;7.43;;;;;;;;;;5025619;28;20037;-64
2023/07/09 05:30:27;;;;;;;9.45;7.45;;;;;;;;;;5021646;28;20038;-64
2023/07/09 05:32:55;;;;;;;10.50;6.50;;;;;;;;;;5022658;28;20094;-64
2023/07/09 05:35:22;;;;;;;13.20;6.55;;;;;;;;;;5027716;28;20140;-63
2023/07/09 05:37:48;;;;;;;9.25;7.03;;;;;;;;;;5028047;28;20051;-64
2023/07/09 05:40:14;;;;;;;9.25;7.40;;;;;;;;;;5020739;28;20415;-64
2023/07/09 05:42:40;;;;;;;9.05;6.70;;;;;;;;;;5022342;28;20034;-63
2023/07/09 05:45:06;;;;;;;8.20;6.90;;;;;;;;;;5019537;28;20045;-63
2023/07/09 05:47:33;;;;;;;9.93;7.63;;;;;;;;;;5018209;28;20048;-63
2023/07/09 05:49:59;;;;;;;13.00;7.13;;;;;;;;;;5023763;28;20044;-63
2023/07/09 05:52:25;;;;;;;9.95;7.93;;;;;;;;;;5018237;28;20779;-64
2023/07/09 05:54:52;;;;;;;8.13;6.85;;;;;;;;;;5026352;28;20045;-63
2023/07/09 05:57:19;;;;;;;14.57;9.75;;;;;;;;;;5015839;28;20050;-64
2023/07/09 05:59:45;;;;;;;9.88;7.82;;;;;;;;;;5012907;28;20181;-63
2023/07/09 06:02:12;;;;;;;12.55;8.35;;;;;;;;;;5018650;28;20050;-64
2023/07/09 06:04:38;;;;;;;12.50;7.00;;;;;;;;;;5034849;28;20136;-64
2023/07/09 06:07:04;;;;;;;12.05;8.27;;;;;;;;;;5017844;28;20046;-63
2023/07/09 06:09:31;;;;;;;10.95;7.97;;;;;;;;;;5014197;28;20037;-63
2023/07/09 06:11:58;;;;;;;8.95;7.63;;;;;;;;;;5015500;28;20049;-63
2023/07/09 06:14:24;;;;;;;10.48;7.88;;;;;;;;;;5015056;28;20041;-64
2023/07/09 06:16:50;;;;;;;11.77;8.43;;;;;;;;;;5016988;28;20045;-63
2023/07/09 06:19:16;;;;;;;10.95;8.32;;;;;;;;;;5018920;28;20073;-64
2023/07/09 06:21:42;;;;;;;11.98;8.18;;;;;;;;;;5031435;28;20112;-64
2023/07/09 06:24:09;;;;;;;9.68;7.40;;;;;;;;;;5026211;28;20122;-64
2023/07/09 06:26:35;;;;;;;8.85;7.82;;;;;;;;;;5031398;28;20517;-63
2023/07/09 06:29:02;;;;;;;11.88;7.82;;;;;;;;;;5034644;28;20165;-64
2023/07/09 06:31:28;;;;;;;10.77;6.88;;;;;;;;;;5020741;28;20146;-64
2023/07/09 06:33:54;;;;;;;9.85;8.52;;;;;;;;;;5035201;28;20042;-64
2023/07/09 06:36:20;;;;;;;10.27;7.70;;;;;;;;;;5036807;28;20045;-63
2023/07/09 06:38:46;;;;;;;12.82;9.55;;;;;;;;;;5019397;28;20168;-64
2023/07/09 06:41:14;;;;;;;11.00;8.73;;;;;;;;;;5020133;28;20067;-64
2023/07/09 06:43:40;;;;;;;16.85;7.82;;;;;;;;;;5034015;28;20514;-64
2023/07/09 06:46:08;;;;;;;11.38;8.25;;;;;;;;;;5031361;28;20041;-64
2023/07/09 06:48:35;;;;;;;9.35;7.70;;;;;;;;;;5022529;28;20125;-63
2023/07/09 06:51:01;;;;;;;9.38;7.65;;;;;;;;;;5018308;28;20227;-64
2023/07/09 06:53:28;;;;;;;10.10;8.25;;;;;;;;;;5016789;28;20046;-64
2023/07/09 06:55:55;;;;;;;13.52;8.65;;;23.20;78.00;;;;;;5023569;28;20049;-63
2023/07/09 06:58:24;;;;;;;13.77;8.23;;;23.70;84.70;;;;;;5023133;28;20057;-63
2023/07/09 07:00:50;;;;;;;11.25;8.15;;;23.70;84.00;;;;;;5022355;28;20037;-63
2023/07/09 07:03:16;;;;;;;11.73;9.10;;;23.80;84.30;;;;;;5019924;28;20040;-63
2023/07/09 07:05:46;;;;;;;15.50;10.15;;;23.80;84.70;;;;;;5021635;28;20405;-63
2023/07/09 07:08:15;;;;;;;10.05;7.65;;;23.80;85.30;;;;;;5023829;28;20038;-64
2023/07/09 07:10:41;;;;;;;12.02;8.07;;;23.80;85.10;;;;;;5028439;28;20107;-63
2023/07/09 07:13:07;;;;;;;10.82;8.23;;;23.90;85.10;;;;;;5022208;28;20643;-63
2023/07/09 07:15:33;;;;;;;9.57;7.68;;;23.90;85.00;;;;;;5027971;28;20128;-64
2023/07/09 07:17:58;;;;;;;12.25;9.48;;;23.90;84.80;;;;;;5015223;28;20057;-63
2023/07/09 07:20:24;;;;;;;10.95;8.45;;;24.00;85.40;;;;;;5023509;28;20207;-63
2023/07/09 07:22:50;;;;;;;11.80;9.40;;;24.00;85.50;;;;;;5021548;28;20121;-63
2023/07/09 07:25:16;;;;;;;9.27;7.82;;;24.00;86.80;;;;;;5028445;28;20063;-63
2023/07/09 07:27:41;;;;;;;12.52;9.65;;;24.10;86.10;;;;;;5029204;28;20029;-63
2023/07/09 07:30:08;;;;;;;11.98;8.98;;;24.10;86.20;;;;;;5028859;28;20134;-63
2023/07/09 07:32:36;;;;;;;11.30;9.70;;;24.20;86.60;;;;;;5022114;28;20049;-63
2023/07/09 07:35:03;;;;;;;13.48;9.15;;;24.20;86.60;;;;;;5040423;28;20121;-63
2023/07/09 07:37:29;;;;;;;12.45;9.38;;;;;;;;;;5021042;28;20068;-64
2023/07/09 07:39:55;;;;;;;12.13;8.70;;;;;;;;;;5025878;28;20045;-64
2023/07/09 07:42:21;;;;;;;11.02;8.77;;;;;;;;;;5020023;28;20096;-63
2023/07/09 07:44:47;;;;;;;11.07;8.43;;;;;;;;;;5025160;28;20041;-64
2023/07/09 07:47:13;;;;;;;11.60;8.15;;;;;;;;;;5027115;28;20056;-64
2023/07/09 07:49:40;;;;;;;11.05;7.50;;;;;;;;;;5027947;28;20034;-64
2023/07/09 07:52:07;;;;;;;10.18;7.70;;;;;;;;;;5024347;28;20041;-63
2023/07/09 07:54:34;;;;;;;9.57;7.70;;;;;;;;;;5029481;28;20132;-63
2023/07/09 07:57:00;;;;;;;11.43;8.43;;;;;;;;;;5025082;28;20029;-64
2023/07/09 07:59:27;;;;;;;10.40;8.65;;;;;;;;;;5015857;28;20045;-64
2023/07/09 08:01:53;;;;;;;11.43;8.45;;;;;;;;;;5023908;28;20116;-63
2023/07/09 08:04:19;;;;;;;13.50;8.50;;;;;;;;;;5023190;28;20048;-63
2023/07/09 08:06:46;;;;;;;8.43;7.18;;;;;;;;;;5030099;28;20119;-63
2023/07/09 08:09:12;;;;;;;13.75;8.45;;;;;;;;;;5023541;28;20049;-64
2023/07/09 08:11:38;;;;;;;12.65;8.60;;;;;;;;;;5026950;28;20048;-64
2023/07/09 08:14:04;;;;;;;10.57;8.55;;;;;;;;;;5025298;28;20045;-64
2023/07/09 08:16:30;;;;;;;11.60;8.95;;;;;;;;;;5024306;28;20538;-64
2023/07/09 08:18:56;;;;;;;9.98;8.35;;;;;;;;;;5019739;28;20399;-63
2023/07/09 08:21:22;;;;;;;10.38;8.75;;;;;;;;;;5025972;28;20368;-63
2023/07/09 08:23:49;;;;;;;8.88;7.93;;;;;;;;;;5034518;28;20660;-64
2023/07/09 08:26:15;;;;;;;9.25;7.70;;;;;;;;;;5025129;28;20119;-63
2023/07/09 08:28:41;;;;;;;10.52;8.15;;;;;;;;;;5022005;28;20041;-63
2023/07/09 08:31:07;;;;;;;10.48;7.38;;;;;;;;;;5025198;28;20064;-63
2023/07/09 08:33:33;;;;;;;11.05;8.82;;;;;;;;;;5026497;28;20037;-63
2023/07/09 08:36:00;;;;;;;11.55;8.15;;;;;;;;;;5022709;28;20073;-63
2023/07/09 08:38:26;;;;;;;10.30;7.80;;;;;;;;;;5022002;28;20112;-63
2023/07/09 08:41:02;;;;;;;9.15;7.68;;;;;;;;;;5024318;28;20081;-63
2023/07/09 08:43:34;;;;;;;11.05;7.90;;;;;;;;;;5023630;28;20483;-64
2023/07/09 08:46:23;;;;;;;10.07;7.78;;;;;;;;;;5018627;28;20111;-63
2023/07/09 08:48:50;;;;;;;9.30;7.95;;;;;;;;;;5021568;28;20056;-63
2023/07/09 08:51:22;;;;;;;8.45;7.18;;;;;;;;;;5029112;28;20045;-63
2023/07/09 08:53:50;;;;;;;10.77;9.10;;;;;;;;;;5030008;28;20117;-63
2023/07/09 08:56:17;;;;;;;9.55;7.88;;;;;;;;;;5023869;28;20318;-63
2023/07/09 08:58:44;;;;;;;9.40;8.10;;;;;;;;;;5025118;28;20046;-63
2023/07/09 09:01:33;;;;;;;11.50;7.88;;;;;;;;;;5023136;28;20033;-63
2023/07/09 09:04:03;;;;;;;9.27;7.38;;;;;;;;;;5022988;28;20164;-63
2023/07/09 09:06:30;;;;;;;9.38;6.68;;;;;;;;;;5029179;28;20044;-63
2023/07/09 09:09:00;;;;;;;9.10;6.65;;;;;;;;;;5024408;28;20041;-63
2023/07/09 09:11:31;;;;;;;11.20;8.38;;;24.30;86.80;;;;;;5030724;28;20057;-63
2023/07/09 09:14:01;;;;;;;13.20;7.10;;;;;;;;;;5018296;28;20079;-64
2023/07/09 09:16:32;;;;;;;9.07;7.35;;;;;;;;;;5020265;28;20391;-63
2023/07/09 09:18:59;;;;;;;7.97;7.18;;;;;;;;;;5016223;28;20061;-63
2023/07/09 09:21:29;;;;;;;7.78;6.90;;;;;;;;;;5023114;28;20528;-63
2023/07/09 09:23:59;;;;;;;9.25;7.93;;;;;;;;;;5023135;28;20069;-63
2023/07/09 09:26:35;;;;;;;10.68;6.85;;;;;;;;;;5028387;28;20045;-63
2023/07/09 09:29:01;;;;;;;9.85;7.10;;;;;;;;;;5027126;28;20041;-63
2023/07/09 09:31:28;;;;;;;9.18;6.03;;;;;;;;;;5026998;28;20071;-63
2023/07/09 09:33:54;;;;;;;9.13;6.82;;;;;;;;;;5026094;28;20573;-63
2023/07/09 09:36:23;;;;;;;9.73;6.85;;;26.60;86.90;;;;;;5027014;28;20087;-63
2023/07/09 09:38:50;;;;;;;7.68;6.38;;;27.20;86.10;;;;;;5036181;28;20459;-63
2023/07/09 09:41:21;;;;;;;7.30;6.10;;;;;;;;;;5025408;28;20038;-64
2023/07/09 09:43:48;;;;;;;6.85;6.15;;;;;;;;;;5024421;28;20511;-63
2023/07/09 09:46:23;;;;;;;8.93;7.07;;;;;;;;;;5023361;28;20038;-63
2023/07/09 09:48:51;;;;;;;8.70;6.40;;;;;;;;;;5028658;28;20091;-64
2023/07/09 09:51:18;;;;;;;10.93;6.93;;;;;;;;;;5020016;28;20045;-63
2023/07/09 09:53:51;;;;;;;8.68;6.75;;;;;;;;;;5027216;28;20045;-63
2023/07/09 09:56:25;;;;;;;9.63;6.13;;;;;;;;;;5020195;28;20045;-63
2023/07/09 09:58:55;;;;;;;10.35;7.10;;;;;;;;;;5025377;28;20060;-63
2023/07/09 10:01:22;;;;;;;7.68;6.88;;;;;;;;;;5023252;28;20048;-64
2023/07/09 10:03:52;;;;;;;7.10;6.28;;;;;;;;;;5021337;28;20125;-63
2023/07/09 10:06:39;;;;;;;9.95;6.60;;;;;;;;;;5026616;28;20095;-63
2023/07/09 10:09:20;;;;;;;6.80;5.60;;;;;;;;;;5023406;28;20050;-63
2023/07/09 10:11:52;;;;;;;10.75;6.43;;;;;;;;;;5025040;28;20060;-63
2023/07/09 10:14:21;;;;;;;;;;;;;;;;;;5023038;28;20037;-63
2023/07/09 10:16:49;;;;;;;7.53;5.47;;;;;;;;;;5028934;28;19917;-62
2023/07/09 10:19:26;;;;;;;8.10;5.35;;;;;;;;;;5022762;28;20049;-63
2023/07/09 10:21:57;;;;;;;7.00;5.60;;;;;;;;;;5027321;28;20671;-63
2023/07/09 10:24:44;;;;;;;7.20;4.80;;;28.30;83.40;;;;;;5023769;28;20174;-63
2023/07/09 10:27:16;;;;;;;6.20;4.85;;;28.50;82.40;;;;;;5025605;28;20279;-63
2023/07/09 10:29:59;;;;;;;7.68;5.30;;;28.50;82.10;;;;;;5023734;28;20033;-63
2023/07/09 10:32:52;;;;;;;7.10;5.32;;;28.60;81.90;;;;;;5030821;28;20060;-63
2023/07/09 10:35:33;;;;;;;8.35;5.28;;;28.60;81.20;;;;;;5020991;28;20041;-63
2023/07/09 10:38:21;;;;;;;6.00;4.65;;;28.70;81.00;;;;;;5028344;28;20122;-63
2023/07/09 10:40:52;;;;;;;11.23;5.05;;;28.70;80.80;;;;;;5025725;28;20718;-62
2023/07/09 10:43:35;;;;;;;6.55;4.72;;;28.80;80.80;;;;;;5025998;28;20122;-63
2023/07/09 10:46:25;;;;;;;7.50;5.35;;;28.90;80.70;;;;;;5020330;28;20037;-63
2023/07/09 10:48:53;;;;;;;6.85;5.13;;;29.00;80.30;;;;;;5027896;28;20115;-64
2023/07/09 10:51:28;;;;;;;6.40;4.85;;;29.00;80.10;;;;;;5029189;28;20851;-63
2023/07/09 10:54:07;;;;;;;14.20;5.85;;;29.10;79.80;;;;;;5018201;28;20041;-64
2023/07/09 10:56:37;;;;;;;12.85;5.82;;;29.20;78.40;;;;;;5027162;28;20073;-64
2023/07/09 10:59:20;;;;;;;9.52;5.75;;;29.10;76.80;;;;;;5041938;28;20046;-64
2023/07/09 11:01:50;;;;;;;6.53;5.50;;;29.00;75.50;;;;;;5020700;28;20035;-65
2023/07/09 11:04:35;;;;;;;8.85;5.93;;;29.00;75.10;;;;;;5038849;28;20398;-65
2023/07/09 11:07:09;;;;;;;8.73;5.55;;;28.90;74.60;;;;;;5023804;28;20367;-65
2023/07/09 11:09:45;;;;;;;7.15;4.90;;;28.80;73.90;;;;;;5026393;28;20107;-65
2023/07/09 11:12:18;;;;;;;8.85;6.00;;;28.70;73.80;;;;;;5028940;28;20045;-65
2023/07/09 11:14:50;;;;;;;7.95;5.95;;;28.70;73.30;;;;;;5024588;28;20459;-65
2023/07/09 11:17:19;;;;;;;9.82;5.70;;;28.70;73.10;;;;;;5021473;28;20046;-65
2023/07/09 11:20:15;;;;;;;7.07;5.07;;;28.60;72.80;;;;;;5036740;28;20064;-64
2023/07/09 11:22:41;;;;;;;8.70;4.65;;;28.60;72.40;;;;;;4999761;28;20049;-64
2023/07/09 11:25:13;;;;;;;7.53;5.32;;;28.60;73.20;;;;;;5021893;28;20044;-64
2023/07/09 11:27:52;;;;;;;8.00;5.72;;;28.60;72.80;;;;;;5021074;28;20037;-64
2023/07/09 11:30:22;;;;;;;7.82;5.47;;;28.70;72.00;;;;;;5004200;28;20037;-64
2023/07/09 11:32:54;;;;;;;7.07;4.57;;;28.70;70.70;;;;;;5015539;28;20193;-64
2023/07/09 11:35:28;;;;;;;8.55;4.78;;;28.70;70.10;;;;;;5016834;28;20104;-64
2023/07/09 11:37:55;;;;;;;9.43;5.88;;;28.70;68.30;;;;;;5036321;28;20084;-64
2023/07/09 11:40:22;;;;;;;7.10;5.07;;;28.70;68.80;;;;;;5029167;28;20096;-64
2023/07/09 11:42:57;;;;;;;8.65;5.70;;;28.70;68.80;;;;;;5015190;28;20037;-64
2023/07/09 11:45:31;;;;;;;7.10;4.97;;;28.70;70.00;;;;;;5019195;28;20438;-64
2023/07/09 11:48:23;;;;;;;8.10;4.95;;;;;;;;;;5018917;28;20049;-64
2023/07/09 11:50:50;;;;;;;8.38;5.32;;;;;;;;;;5015420;28;20041;-64
2023/07/09 11:53:28;;;;;;;5.90;4.60;;;;;;;;;;5018647;28;20549;-64
2023/07/09 11:55:55;;;;;;;8.70;4.32;;;;;;;;;;5021787;28;20779;-64
2023/07/09 11:58:21;;;;;;;8.35;4.85;;;;;;;;;;5015002;28;20261;-64
2023/07/09 12:00:49;;;;;;;7.65;4.78;;;;;;;;;;5016866;28;20470;-64
2023/07/09 12:03:23;;;;;;;9.90;6.13;;;;;;;;;;5016281;28;20060;-64
2023/07/09 12:05:54;;;;;;;7.53;5.25;;;;;;;;;;5017549;28;20064;-64
2023/07/09 12:08:34;;;;;;;10.60;4.85;;;;;;;;;;5018421;28;20030;-64
2023/07/09 12:11:01;;;;;;;6.07;4.40;;;;;;;;;;5008964;28;20083;-64
2023/07/09 12:13:27;;;;;;;7.03;5.47;;;;;;;;;;5007857;28;20096;-64
2023/07/09 12:15:53;;;;;;;6.25;4.75;;;;;;;;;;5004727;28;20041;-63
2023/07/09 12:18:19;;;;;;;8.00;5.43;;;;;;;;;;5023343;28;20037;-64
2023/07/09 12:20:49;;;;;;;6.55;4.68;;;;;;;;;;5005699;28;20523;-64
2023/07/09 12:23:29;;;;;;;11.80;4.90;;;;;;;;;;5004631;28;20050;-64
2023/07/09 12:25:59;;;;;;;11.40;5.93;;;;;;;;;;5021858;28;20448;-64
2023/07/09 12:28:27;;;;;;;8.13;4.97;;;;;;;;;;5019947;28;20088;-64
2023/07/09 12:30:53;;;;;;;8.07;5.05;;;;;;;;;;5020887;28;20038;-64
2023/07/09 12:33:21;;;;;;;10.38;4.50;;;;;;;;;;5023272;28;20045;-64
2023/07/09 12:35:47;;;;;;;5.80;4.35;;;;;;;;;;5022444;28;20120;-64
2023/07/09 12:38:18;;;;;;;9.82;5.93;;;;;;;;;;5022431;28;20086;-64
2023/07/09 12:40:44;;;;;;;8.57;5.35;;;;;;;;;;5003222;28;20120;-63
2023/07/09 12:43:12;;;;;;;9.13;4.93;;;;;;;;;;5021381;28;21100;-64
2023/07/09 12:45:38;;;;;;;7.07;4.47;;;28.80;70.20;;;;;;5010245;28;20064;-64
2023/07/09 12:48:04;;;;;;;6.95;4.68;;;28.90;65.20;;;;;;4993556;28;20034;-64
2023/07/09 12:50:33;;;;;;;7.97;5.40;;;28.90;65.50;;;;;;4986463;28;20192;-64
2023/07/09 12:53:15;;;;;;;8.00;5.50;;;28.90;66.20;;;;;;4987078;28;20037;-64
2023/07/09 12:55:44;;;;;;;5.78;4.05;;;29.00;67.20;;;;;;4991869;28;20045;-64
2023/07/09 12:58:22;;;;;;;5.93;4.13;;;29.10;66.40;;;;;;4991068;28;20047;-64
2023/07/09 13:00:51;;;;;;;8.48;5.38;;;29.10;65.60;;;;;;4972454;28;20103;-64
2023/07/09 13:03:21;;;;;;;7.75;4.60;;;29.10;65.20;;;;;;4973356;28;20046;-64
2023/07/09 13:05:59;;;;;;;12.23;5.60;;;29.10;64.90;;;;;;4979913;28;20146;-64
2023/07/09 13:08:28;;;;;;;7.95;5.20;;;29.10;65.30;;;;;;4983501;28;20053;-64
2023/07/09 13:10:54;;;;;;;9.25;5.20;;;29.10;65.40;;;;;;4980005;28;20100;-64
2023/07/09 13:13:22;;;;;;;7.63;5.38;;;29.10;65.60;;;;;;4966391;28;20049;-64
2023/07/09 13:16:01;;;;;;;8.18;5.35;;;29.10;65.90;;;;;;4992553;28;20115;-64
2023/07/09 13:18:28;;;;;;;8.57;5.30;;;29.10;65.90;;;;;;4985924;28;20042;-62
2023/07/09 13:20:55;;;;;;;6.95;5.13;;;29.20;66.40;;;;;;4984302;28;20064;-62
2023/07/09 13:23:25;;;;;;;7.65;5.13;;;29.20;66.60;;;;;;4991825;28;20156;-62
2023/07/09 13:25:52;;;;;;;8.32;6.18;;;29.20;66.90;;;;;;5020457;28;20132;-63
2023/07/09 13:28:26;;;;;;;15.80;5.97;;;29.20;67.20;;;;;;5019167;28;20049;-63
2023/07/09 13:31:23;;;;;;;18.80;6.05;;;29.20;67.60;;;;;;4992523;28;20131;-64
2023/07/09 13:33:56;;;;;;;9.82;5.20;;;29.10;67.90;;;;;;4974490;28;20057;-63
2023/07/09 13:36:22;;;;;;;9.68;5.38;;;29.10;67.90;;;;;;4976382;28;20045;-65
2023/07/09 13:38:48;;;;;;;7.10;5.13;;;29.00;68.00;;;;;;4980122;28;20522;-65
2023/07/09 13:41:16;;;;;;;8.57;5.68;;;;;;;;;;4980878;28;20125;-64
2023/07/09 13:43:46;;;;;;;8.13;6.05;;;;;;;;;;5007812;28;20474;-64
2023/07/09 13:46:13;;;;;;;11.50;6.22;;;;;;;;;;5026188;28;20123;-64
2023/07/09 13:48:40;;;;;;;9.57;6.95;;;;;;;;;;5026793;28;20045;-64
2023/07/09 13:51:23;;;;;;;18.38;6.50;;;;;;;;;;5039056;28;20180;-64
2023/07/09 13:53:51;;;;;;;10.80;6.05;;;;;;;;;;5034609;28;20041;-65
2023/07/09 13:56:17;;;;;;;7.03;5.32;;;28.90;68.40;;;;;;5031069;28;20046;-64
2023/07/09 13:58:43;;;;;;;8.32;6.10;;;28.30;76.50;;;;;;5029010;28;20059;-64
2023/07/09 14:01:16;;;;;;;7.70;6.57;;;28.20;76.30;;;;;;5021511;28;20518;-64
2023/07/09 14:03:42;;;;;;;8.80;5.97;;;28.10;76.20;;;;;;5023084;28;20152;-64
2023/07/09 14:06:17;;;;;;;7.05;5.22;;;28.10;76.10;;;;;;5038188;28;20124;-63
2023/07/09 14:08:43;;;;;;;7.15;5.13;;;28.10;75.00;;;;;;5024587;28;20083;-64
2023/07/09 14:11:13;;;;;;;8.63;5.43;;;28.00;74.10;;;;;;5025539;28;20131;-64
2023/07/09 14:13:39;;;;;;;16.67;5.50;;;28.00;73.30;;;;;;5021233;28;20041;-64